createdAt,value
2023-01-23T00:02:07.786Z,1.21
2023-01-23T00:04:36.364Z,1.16
2023-01-23T00:07:03.532Z,1.03
2023-01-23T00:09:30.205Z,1.06
2023-01-23T00:11:56.828Z,1.18
2023-01-23T00:14:23.307Z,1.15
2023-01-23T00:16:49.709Z,1.00
2023-01-23T00:19:17.057Z,1.13
2023-01-23T00:21:43.852Z,1.02
2023-01-23T00:24:12.076Z,1.03
2023-01-23T00:26:38.750Z,1.04
2023-01-23T00:29:05.252Z,0.99
2023-01-23T00:31:35.508Z,1.08
2023-01-23T00:34:05.765Z,1.08
2023-01-23T00:36:39.495Z,1.07
2023-01-23T00:39:12.321Z,0.99
2023-01-23T00:41:38.732Z,1.01
2023-01-23T00:44:05.130Z,1.00
2023-01-23T00:46:31.643Z,0.98
2023-01-23T00:48:58.117Z,0.98
2023-01-23T00:51:24.574Z,0.88
2023-01-23T00:53:51.162Z,0.94
2023-01-23T00:56:18.037Z,0.90
2023-01-23T00:58:45.404Z,0.90
2023-01-23T01:01:12.915Z,0.93
2023-01-23T01:03:39.645Z,0.87
2023-01-23T01:06:06.088Z,0.78
2023-01-23T01:08:32.739Z,0.81
2023-01-23T01:10:59.182Z,0.86
2023-01-23T01:13:26.024Z,0.86
2023-01-23T01:15:54.014Z,0.81
2023-01-23T01:18:22.346Z,0.85
2023-01-23T01:20:49.466Z,0.83
2023-01-23T01:23:16.378Z,0.84
2023-01-23T01:25:43.196Z,0.66
2023-01-23T01:28:09.863Z,0.71
2023-01-23T01:30:36.966Z,0.63
2023-01-23T01:33:04.194Z,0.70
2023-01-23T01:35:30.793Z,0.83
2023-01-23T01:37:58.145Z,0.93
2023-01-23T01:40:28.832Z,0.78
2023-01-23T01:42:58.743Z,0.79
2023-01-23T01:46:02.928Z,0.86
2023-01-23T01:48:35.214Z,0.76
2023-01-23T01:51:07.365Z,0.75
2023-01-23T01:53:34.613Z,0.71
2023-01-23T01:56:01.388Z,0.71
2023-01-23T01:58:28.694Z,0.68
2023-01-23T02:00:55.286Z,0.73
2023-01-23T02:03:21.951Z,0.75
2023-01-23T02:05:50.245Z,0.76
2023-01-23T02:08:52.511Z,0.80
2023-01-23T02:11:19.494Z,0.79
2023-01-23T02:13:46.110Z,0.80
2023-01-23T02:16:19.990Z,0.75
2023-01-23T02:18:49.802Z,0.81
2023-01-23T02:21:25.021Z,0.79
2023-01-23T02:23:57.713Z,0.74
2023-01-23T02:26:36.574Z,0.89
2023-01-23T02:29:05.906Z,0.82
2023-01-23T02:31:32.531Z,0.81
2023-01-23T02:34:00.009Z,0.80
2023-01-23T02:36:29.845Z,0.76
2023-01-23T02:39:04.448Z,0.60
2023-01-23T02:41:37.459Z,0.76
2023-01-23T02:44:28.410Z,0.65
2023-01-23T02:46:56.312Z,0.59
2023-01-23T02:49:23.460Z,0.67
2023-01-23T02:51:50.934Z,0.67
2023-01-23T02:54:18.700Z,0.58
2023-01-23T02:56:45.971Z,0.56
2023-01-23T02:59:31.288Z,0.50
2023-01-23T03:01:58.039Z,0.58
2023-01-23T03:04:24.749Z,0.55
2023-01-23T03:06:51.215Z,0.61
2023-01-23T03:09:19.030Z,0.47
2023-01-23T03:11:46.431Z,0.55
2023-01-23T03:14:19.463Z,0.59
2023-01-23T03:16:50.332Z,0.31
2023-01-23T03:19:18.773Z,0.38
2023-01-23T03:21:46.314Z,0.46
2023-01-23T03:24:13.896Z,0.46
2023-01-23T03:26:42.379Z,0.56
2023-01-23T03:29:34.341Z,0.24
2023-01-23T03:32:01.483Z,0.39
2023-01-23T03:34:28.938Z,0.56
2023-01-23T03:36:55.667Z,0.26
2023-01-23T03:39:40.403Z,0.71
2023-01-23T03:42:06.835Z,0.59
2023-01-23T03:44:33.246Z,0.66
2023-01-23T03:46:59.617Z,0.77
2023-01-23T03:49:26.268Z,0.64
2023-01-23T03:51:52.792Z,0.67
2023-01-23T03:54:19.199Z,0.67
2023-01-23T03:56:45.576Z,0.76
2023-01-23T03:59:15.085Z,0.63
2023-01-23T04:01:41.581Z,0.53
2023-01-23T04:04:08.973Z,0.72
2023-01-23T04:06:35.618Z,0.81
2023-01-23T04:09:02.145Z,0.62
2023-01-23T04:11:29.051Z,0.67
2023-01-23T04:13:55.567Z,0.70
2023-01-23T04:16:24.925Z,0.81
2023-01-23T04:18:51.551Z,0.86
2023-01-23T04:21:18.385Z,0.71
2023-01-23T04:23:45.037Z,0.70
2023-01-23T04:26:11.495Z,0.85
2023-01-23T04:28:37.887Z,0.75
2023-01-23T04:31:05.109Z,0.75
2023-01-23T04:33:31.750Z,0.68
2023-01-23T04:36:00.516Z,0.68
2023-01-23T04:38:28.834Z,0.59
2023-01-23T04:40:55.919Z,0.57
2023-01-23T04:43:22.667Z,0.73
2023-01-23T04:45:54.672Z,0.72
2023-01-23T04:48:21.719Z,0.71
2023-01-23T04:50:49.717Z,0.68
2023-01-23T04:53:16.232Z,0.62
2023-01-23T04:55:42.719Z,0.50
2023-01-23T04:58:11.353Z,0.49
2023-01-23T05:00:38.456Z,0.61
2023-01-23T05:03:05.151Z,0.64
2023-01-23T05:05:32.383Z,0.46
2023-01-23T05:07:58.859Z,0.35
2023-01-23T05:10:25.380Z,0.58
2023-01-23T05:12:51.778Z,0.62
2023-01-23T05:15:18.423Z,0.54
2023-01-23T05:17:44.827Z,0.54
2023-01-23T05:20:11.681Z,0.59
2023-01-23T05:22:38.604Z,0.66
2023-01-23T05:25:05.584Z,0.57
2023-01-23T05:27:32.016Z,0.42
2023-01-23T05:29:58.417Z,0.45
2023-01-23T05:32:24.991Z,0.40
2023-01-23T05:34:51.407Z,0.48
2023-01-23T05:37:17.862Z,0.56
2023-01-23T05:39:44.300Z,0.55
2023-01-23T05:42:10.739Z,0.58
2023-01-23T05:44:37.141Z,0.40
2023-01-23T05:47:03.824Z,0.55
2023-01-23T05:49:30.227Z,0.59
2023-01-23T05:51:56.676Z,0.47
2023-01-23T05:54:23.073Z,0.36
2023-01-23T05:56:49.495Z,0.52
2023-01-23T05:59:15.883Z,0.18
2023-01-23T06:01:42.328Z,0.43
2023-01-23T06:04:08.728Z,0.37
2023-01-23T06:06:35.139Z,0.36
2023-01-23T06:09:01.727Z,0.32
2023-01-23T06:11:28.848Z,0.31
2023-01-23T06:13:55.368Z,0.49
2023-01-23T06:16:21.822Z,0.39
2023-01-23T06:18:48.747Z,0.00
2023-01-23T06:21:18.203Z,0.31
2023-01-23T06:23:46.196Z,0.41
2023-01-23T06:26:13.568Z,0.30
2023-01-23T06:28:40.285Z,0.33
2023-01-23T06:31:09.125Z,0.31
2023-01-23T06:33:38.805Z,0.41
2023-01-23T06:36:06.565Z,0.35
2023-01-23T06:38:33.717Z,0.20
2023-01-23T06:41:00.732Z,0.28
2023-01-23T06:43:27.582Z,0.36
2023-01-23T06:45:54.025Z,0.20
2023-01-23T06:48:20.903Z,0.08
2023-01-23T06:50:47.423Z,0.47
2023-01-23T06:53:15.812Z,0.44
2023-01-23T06:55:42.481Z,0.51
2023-01-23T06:58:09.272Z,0.35
2023-01-23T07:00:35.673Z,0.38
2023-01-23T07:03:03.751Z,0.27
2023-01-23T07:05:31.017Z,0.35
2023-01-23T07:07:57.740Z,0.31
2023-01-23T07:10:24.362Z,0.57
2023-01-23T07:12:50.813Z,0.55
2023-01-23T07:15:17.373Z,0.37
2023-01-23T07:17:45.687Z,0.51
2023-01-23T07:20:12.396Z,0.50
2023-01-23T07:22:38.829Z,0.22
2023-01-23T07:25:05.807Z,0.30
2023-01-23T07:27:33.154Z,0.37
2023-01-23T07:29:59.761Z,0.38
2023-01-23T07:32:26.174Z,0.38
2023-01-23T07:34:53.183Z,0.30
2023-01-23T07:37:19.585Z,0.06
2023-01-23T07:39:46.003Z,0.35
2023-01-23T07:42:12.407Z,0.30
2023-01-23T07:44:38.826Z,0.43
2023-01-23T07:47:05.211Z,0.39
2023-01-23T07:49:31.664Z,0.34
2023-01-23T07:51:58.077Z,0.34
2023-01-23T07:54:24.528Z,0.35
2023-01-23T07:56:51.111Z,0.38
2023-01-23T07:59:17.500Z,0.28
2023-01-23T08:01:44.263Z,0.27
2023-01-23T08:04:10.725Z,0.30
2023-01-23T08:06:38.200Z,0.29
2023-01-23T08:09:04.633Z,0.31
2023-01-23T08:11:33.510Z,0.34
2023-01-23T08:14:00.743Z,0.44
2023-01-23T08:16:27.786Z,0.52
2023-01-23T08:18:54.407Z,0.14
2023-01-23T08:21:21.256Z,0.18
2023-01-23T08:23:48.251Z,0.59
2023-01-23T08:26:17.199Z,0.46
2023-01-23T08:28:45.160Z,0.41
2023-01-23T08:31:12.883Z,0.38
2023-01-23T08:33:40.090Z,0.42
2023-01-23T08:36:10.167Z,0.35
2023-01-23T08:38:37.631Z,0.53
2023-01-23T08:41:05.238Z,0.44
2023-01-23T08:43:32.902Z,0.50
2023-01-23T08:46:00.055Z,0.42
2023-01-23T08:48:27.700Z,0.53
2023-01-23T08:51:03.264Z,0.55
2023-01-23T08:53:30.166Z,0.52
2023-01-23T08:56:05.545Z,0.56
2023-01-23T08:58:32.159Z,0.50
2023-01-23T09:00:58.760Z,0.57
2023-01-23T09:03:25.627Z,0.58
2023-01-23T09:05:52.178Z,0.57
2023-01-23T09:08:18.632Z,0.66
2023-01-23T09:10:45.077Z,-0.06
2023-01-23T09:13:11.647Z,0.54
2023-01-23T09:15:39.454Z,0.57
2023-01-23T09:18:08.025Z,0.60
2023-01-23T09:20:34.398Z,0.78
2023-01-23T09:23:00.883Z,0.67
2023-01-23T09:25:27.395Z,0.82
2023-01-23T09:27:53.900Z,0.71
2023-01-23T09:30:20.640Z,0.59
2023-01-23T09:32:47.137Z,0.85
2023-01-23T09:35:13.553Z,0.73
2023-01-23T09:37:58.885Z,0.87
2023-01-23T09:40:34.528Z,0.76
2023-01-23T09:43:28.749Z,0.88
2023-01-23T09:46:27.319Z,0.84
2023-01-23T09:49:16.416Z,1.00
2023-01-23T09:52:04.149Z,1.06
2023-01-23T09:54:30.833Z,0.94
2023-01-23T09:57:01.132Z,1.01
2023-01-23T09:59:47.132Z,1.10
2023-01-23T10:02:25.093Z,0.97
2023-01-23T10:04:53.815Z,1.01
2023-01-23T10:07:29.218Z,1.15
2023-01-23T10:10:02.511Z,1.12
2023-01-23T10:12:50.371Z,1.02
2023-01-23T10:15:30.665Z,1.16
2023-01-23T10:18:24.209Z,1.37
2023-01-23T10:21:18.778Z,1.29
2023-01-23T10:24:02.604Z,1.19
2023-01-23T10:26:39.055Z,1.37
2023-01-23T10:29:38.631Z,1.23
2023-01-23T10:32:25.730Z,1.23
2023-01-23T10:34:57.240Z,1.26
2023-01-23T10:37:37.472Z,1.30
2023-01-23T10:40:13.126Z,1.23
2023-01-23T10:42:40.072Z,1.27
2023-01-23T10:45:11.352Z,1.28
2023-01-23T10:47:54.556Z,1.30
2023-01-23T10:50:36.234Z,1.42
2023-01-23T10:53:08.122Z,1.31
2023-01-23T10:55:34.594Z,1.42
2023-01-23T10:58:06.788Z,1.39
2023-01-23T11:00:44.514Z,1.30
2023-01-23T11:03:26.689Z,1.24
2023-01-23T11:05:55.551Z,1.19
2023-01-23T11:08:28.221Z,1.15
2023-01-23T11:11:17.866Z,1.23
2023-01-23T11:13:46.789Z,1.33
2023-01-23T11:16:20.564Z,1.31
2023-01-23T11:19:08.574Z,1.31
2023-01-23T11:21:38.591Z,1.27
2023-01-23T11:24:24.807Z,1.49
2023-01-23T11:27:19.191Z,1.33
2023-01-23T11:29:53.835Z,1.34
2023-01-23T11:32:21.650Z,1.21
2023-01-23T11:34:51.448Z,1.42
2023-01-23T11:37:22.955Z,1.42
2023-01-23T11:40:13.109Z,1.44
2023-01-23T11:42:42.408Z,1.34
2023-01-23T11:45:36.224Z,1.41
2023-01-23T11:48:24.496Z,1.40
2023-01-23T11:50:56.401Z,1.11
2023-01-23T11:53:42.039Z,1.30
2023-01-23T11:56:44.967Z,1.31
2023-01-23T11:59:27.086Z,1.43
2023-01-23T12:02:29.176Z,1.47
2023-01-23T12:05:37.217Z,1.34
2023-01-23T12:08:18.143Z,1.37
2023-01-23T12:10:47.191Z,1.52
2023-01-23T12:13:32.499Z,1.44
2023-01-23T12:16:31.566Z,1.50
2023-01-23T12:19:21.853Z,1.39
2023-01-23T12:22:03.388Z,1.43
2023-01-23T12:24:44.022Z,1.46
2023-01-23T12:27:26.808Z,1.50
2023-01-23T12:30:07.103Z,1.48
2023-01-23T12:32:57.327Z,1.43
2023-01-23T12:35:33.418Z,1.31
2023-01-23T12:38:19.433Z,1.48
2023-01-23T12:41:10.638Z,1.37
2023-01-23T12:43:50.300Z,1.38
2023-01-23T12:46:27.647Z,1.30
2023-01-23T12:49:05.391Z,1.33
2023-01-23T12:51:39.197Z,1.12
2023-01-23T12:54:15.463Z,1.36
2023-01-23T12:56:44.830Z,1.21
2023-01-23T12:59:16.615Z,1.19
2023-01-23T13:01:55.772Z,1.38
2023-01-23T13:04:42.219Z,1.14
2023-01-23T13:07:28.184Z,1.24
2023-01-23T13:10:20.509Z,1.23
2023-01-23T13:12:50.780Z,1.14
2023-01-23T13:15:19.139Z,1.28
2023-01-23T13:17:50.236Z,1.33
2023-01-23T13:20:41.984Z,1.41
2023-01-23T13:23:29.634Z,1.22
2023-01-23T13:26:14.647Z,1.29
2023-01-23T13:28:50.315Z,1.23
2023-01-23T13:31:47.528Z,1.13
2023-01-23T13:34:17.513Z,1.21
2023-01-23T13:36:46.013Z,1.24
2023-01-23T13:39:18.331Z,1.19
2023-01-23T13:41:46.498Z,1.24
2023-01-23T13:44:40.258Z,1.24
2023-01-23T14:24:55.016Z,0.98
2023-01-23T14:27:30.564Z,0.86
2023-01-23T14:30:04.627Z,0.93
2023-01-23T14:32:33.579Z,0.91
2023-01-23T14:35:00.102Z,0.85
2023-01-23T14:37:27.335Z,0.97
2023-01-23T14:39:58.190Z,0.91
2023-01-23T14:42:30.245Z,0.82
2023-01-23T14:45:01.214Z,0.74
2023-01-23T14:47:37.920Z,0.88
2023-01-23T14:50:17.712Z,0.96
2023-01-23T14:52:44.550Z,0.88
2023-01-23T14:55:29.315Z,1.00
2023-01-23T14:57:58.635Z,0.92
2023-01-23T15:00:26.051Z,0.59
2023-01-23T15:02:54.421Z,0.90
2023-01-23T15:05:28.845Z,0.78
2023-01-23T15:08:05.974Z,0.84
2023-01-23T15:10:43.568Z,0.80
2023-01-23T15:13:54.703Z,0.76
2023-01-23T15:16:28.956Z,0.89
2023-01-23T15:19:04.831Z,0.79
2023-01-23T15:21:38.285Z,0.73
2023-01-23T15:24:14.071Z,0.83
2023-01-23T15:26:53.973Z,0.68
2023-01-23T15:29:20.623Z,0.76
2023-01-23T15:31:57.475Z,0.79
2023-01-23T15:34:30.614Z,0.76
2023-01-23T15:37:00.141Z,0.76
2023-01-23T15:39:49.453Z,0.79
2023-01-23T15:42:15.761Z,0.84
2023-01-23T15:44:42.980Z,0.79
2023-01-23T15:47:10.155Z,0.79
2023-01-23T15:49:40.055Z,0.83
2023-01-23T15:52:25.429Z,0.70
2023-01-23T15:54:55.032Z,0.81
2023-01-23T15:57:21.478Z,0.74
2023-01-23T15:59:47.886Z,0.84
2023-01-23T16:02:30.202Z,0.87
2023-01-23T16:04:58.450Z,0.75
2023-01-23T16:07:32.534Z,0.81
2023-01-23T16:09:59.218Z,0.83
2023-01-23T16:12:30.298Z,0.84
2023-01-23T16:14:58.305Z,0.83
2023-01-23T16:17:24.739Z,0.82
2023-01-23T16:19:51.176Z,0.78
2023-01-23T16:22:25.429Z,0.76
2023-01-23T16:24:52.081Z,0.83
2023-01-23T16:27:19.901Z,0.91
2023-01-23T16:29:46.540Z,0.95
2023-01-23T16:32:13.048Z,0.84
2023-01-23T16:34:39.615Z,0.87
2023-01-23T16:37:13.353Z,0.48
2023-01-23T16:39:42.465Z,0.75
2023-01-23T16:42:17.416Z,0.84
2023-01-23T16:44:44.460Z,0.87
2023-01-23T16:47:11.011Z,0.88
2023-01-23T16:49:51.618Z,0.85
2023-01-23T16:52:20.457Z,0.88
2023-01-23T16:54:47.041Z,0.89
2023-01-23T16:57:20.115Z,0.87
2023-01-23T16:59:49.120Z,0.86
2023-01-23T17:02:18.527Z,0.83
2023-01-23T17:04:44.964Z,0.89
2023-01-23T17:07:18.664Z,0.77
2023-01-23T17:09:45.218Z,0.50
2023-01-23T17:12:22.051Z,0.77
2023-01-23T17:14:49.756Z,0.74
2023-01-23T17:17:25.292Z,0.80
2023-01-23T17:19:52.589Z,0.78
2023-01-23T17:22:24.283Z,0.82
2023-01-23T17:24:50.798Z,0.67
2023-01-23T17:27:17.369Z,0.85
2023-01-23T17:29:43.793Z,0.76
2023-01-23T17:32:24.162Z,0.85
2023-01-23T17:34:50.657Z,0.73
2023-01-23T17:37:21.875Z,0.97
2023-01-23T17:39:49.032Z,0.87
2023-01-23T17:42:15.724Z,0.85
2023-01-23T17:44:42.643Z,0.85
2023-01-23T17:47:12.889Z,0.78
2023-01-23T17:49:40.286Z,0.99
2023-01-23T17:52:07.088Z,0.94
2023-01-23T17:54:33.550Z,0.92
2023-01-23T17:56:59.994Z,1.02
2023-01-23T17:59:26.629Z,0.92
2023-01-23T18:01:53.236Z,1.05
2023-01-23T18:04:21.847Z,1.02
2023-01-23T18:06:48.881Z,1.05
2023-01-23T18:09:15.784Z,1.03
2023-01-23T18:11:52.588Z,0.97
2023-01-23T18:14:52.430Z,1.06
2023-01-23T18:17:44.386Z,1.06
2023-01-23T18:20:19.886Z,1.02
2023-01-23T18:22:47.066Z,0.96
2023-01-23T18:25:17.626Z,0.97
2023-01-23T18:27:47.683Z,1.01
2023-01-23T18:30:21.369Z,1.04
2023-01-23T18:33:16.694Z,1.01
2023-01-23T18:36:07.640Z,1.11
2023-01-23T18:38:46.033Z,1.08
2023-01-23T18:41:24.629Z,1.12
2023-01-23T18:44:06.507Z,1.00
2023-01-23T18:46:33.430Z,1.05
2023-01-23T18:49:00.391Z,1.04
2023-01-23T18:51:48.964Z,0.99
2023-01-23T18:54:54.511Z,1.10
2023-01-23T18:57:59.714Z,0.99
2023-01-23T19:00:34.986Z,0.95
2023-01-23T19:03:12.329Z,0.98
2023-01-23T19:05:39.494Z,1.02
2023-01-23T19:08:07.128Z,1.00
2023-01-23T19:10:48.886Z,1.03
2023-01-23T19:13:35.448Z,1.13
2023-01-23T19:16:08.463Z,1.06
2023-01-23T19:18:40.950Z,0.97
2023-01-23T19:21:27.063Z,1.01
2023-01-23T19:23:59.672Z,1.03
2023-01-23T19:26:35.460Z,1.05
2023-01-23T19:29:20.456Z,1.09
2023-01-23T19:32:06.560Z,1.03
2023-01-23T19:34:34.351Z,1.08
2023-01-23T19:37:01.325Z,1.16
2023-01-23T19:39:28.896Z,1.11
2023-01-23T19:41:55.526Z,1.10
2023-01-23T19:44:25.428Z,1.03
2023-01-23T19:46:52.715Z,1.09
2023-01-23T19:49:19.839Z,1.14
2023-01-23T19:51:47.245Z,1.01
2023-01-23T19:54:17.044Z,1.10
2023-01-23T19:56:43.956Z,1.14
2023-01-23T19:59:11.898Z,1.14
2023-01-23T20:01:45.841Z,1.09
2023-01-23T20:04:16.261Z,1.06
2023-01-23T20:06:45.701Z,1.14
2023-01-23T20:09:14.676Z,1.13
2023-01-23T20:11:45.549Z,1.16
2023-01-23T20:14:12.694Z,1.10
2023-01-23T20:16:43.158Z,1.18
2023-01-23T20:19:15.009Z,1.31
2023-01-23T20:21:45.964Z,1.08
2023-01-23T20:24:14.781Z,1.11
2023-01-23T20:26:42.591Z,1.17
2023-01-23T20:29:11.608Z,1.10
2023-01-23T20:31:38.589Z,1.22
2023-01-23T20:34:07.221Z,1.05
2023-01-23T20:36:33.821Z,1.19
2023-01-23T20:39:00.544Z,1.10
2023-01-23T20:41:27.541Z,1.13
2023-01-23T20:43:54.584Z,1.05
2023-01-23T20:46:21.232Z,1.16
2023-01-23T20:48:47.903Z,1.14
2023-01-23T20:51:16.280Z,1.10
2023-01-23T20:53:44.029Z,1.12
2023-01-23T20:56:21.653Z,1.10
2023-01-23T20:59:10.022Z,1.10
2023-01-23T21:01:57.306Z,1.18
2023-01-23T21:04:27.621Z,1.20
2023-01-23T21:06:54.469Z,1.15
2023-01-23T21:09:21.871Z,1.18
2023-01-23T21:11:51.183Z,1.15
2023-01-23T21:14:23.737Z,1.19
2023-01-23T21:16:50.605Z,1.10
2023-01-23T21:19:17.407Z,1.11
2023-01-23T21:21:43.928Z,1.10
2023-01-23T21:24:13.533Z,1.11
2023-01-23T21:26:40.706Z,1.11
2023-01-23T21:29:08.511Z,1.14
2023-01-23T21:31:37.471Z,1.09
2023-01-23T21:34:06.537Z,1.06
2023-01-23T21:36:33.463Z,1.13
2023-01-23T21:39:00.543Z,1.12
2023-01-23T21:41:27.822Z,1.15
2023-01-23T21:43:54.359Z,1.19
2023-01-23T21:46:21.235Z,1.11
2023-01-23T21:48:48.030Z,1.18
2023-01-23T21:51:17.695Z,1.19
2023-01-23T21:53:46.105Z,1.09
2023-01-23T21:56:14.549Z,1.20
2023-01-23T21:58:42.777Z,1.17
2023-01-23T22:01:35.845Z,1.16
2023-01-23T22:04:10.212Z,1.12
2023-01-23T22:06:39.072Z,1.07
2023-01-23T22:09:07.224Z,1.15
2023-01-23T22:11:37.679Z,1.20
2023-01-23T22:14:06.019Z,1.22
2023-01-23T22:16:47.342Z,1.21
2023-01-23T22:19:17.442Z,1.21
2023-01-23T22:21:47.582Z,1.23
2023-01-23T22:24:15.046Z,1.30
2023-01-23T22:26:42.638Z,1.18
2023-01-23T22:29:10.627Z,1.22
2023-01-23T22:31:37.362Z,1.13
2023-01-23T22:34:04.248Z,1.26
2023-01-23T22:36:30.982Z,1.19
2023-01-23T22:39:00.283Z,1.14
2023-01-23T22:41:35.959Z,1.15
2023-01-23T22:44:02.646Z,1.15
2023-01-23T22:46:32.428Z,1.15
2023-01-23T22:48:58.994Z,1.14
2023-01-23T22:51:27.630Z,1.19
2023-01-23T22:53:55.763Z,0.84
2023-01-23T22:56:23.749Z,1.06
2023-01-23T22:58:52.925Z,1.32
2023-01-23T23:01:20.173Z,1.16
2023-01-23T23:03:46.978Z,1.20
2023-01-23T23:06:16.303Z,1.31
2023-01-23T23:08:48.940Z,1.26
2023-01-23T23:11:18.700Z,1.28
2023-01-23T23:13:46.396Z,1.19
2023-01-23T23:16:17.930Z,1.32
2023-01-23T23:18:47.130Z,1.27
2023-01-23T23:21:19.587Z,1.23
2023-01-23T23:23:49.052Z,1.28
2023-01-23T23:26:19.079Z,1.27
2023-01-23T23:28:45.724Z,1.28
2023-01-23T23:31:12.153Z,1.29
2023-01-23T23:33:38.733Z,1.29
2023-01-23T23:36:07.240Z,1.27
2023-01-23T23:38:33.948Z,1.28
2023-01-23T23:41:01.857Z,1.30
2023-01-23T23:43:29.101Z,1.20
2023-01-23T23:45:57.993Z,1.23
2023-01-23T23:48:25.817Z,1.17
2023-01-23T23:50:53.606Z,1.22
2023-01-23T23:53:20.873Z,1.20
2023-01-23T23:55:47.694Z,1.19
2023-01-23T23:58:14.535Z,1.20
